createdAt,value
2024-05-09T00:00:42.548Z,16.85
2024-05-09T00:03:11.792Z,16.17
2024-05-09T00:05:43.499Z,15.13
2024-05-09T00:08:11.975Z,15.27
2024-05-09T00:10:40.953Z,15.57
2024-05-09T00:13:10.243Z,16.73
2024-05-09T00:15:56.260Z,13.32
2024-05-09T00:18:24.193Z,15.73
2024-05-09T00:20:52.046Z,16.80
2024-05-09T00:23:19.902Z,13.98
2024-05-09T00:25:47.760Z,14.40
2024-05-09T00:28:15.539Z,15.00
2024-05-09T00:30:43.235Z,15.38
2024-05-09T00:33:11.811Z,13.82
2024-05-09T00:35:40.061Z,14.20
2024-05-09T00:38:08.165Z,13.73
2024-05-09T00:40:43.373Z,13.93
2024-05-09T00:43:12.653Z,15.73
2024-05-09T00:45:41.525Z,14.87
2024-05-09T00:48:10.505Z,16.92
2024-05-09T00:50:42.191Z,15.23
2024-05-09T00:53:11.867Z,14.40
2024-05-09T00:55:41.709Z,18.67
2024-05-09T00:58:09.925Z,14.68
2024-05-09T01:00:40.219Z,17.20
2024-05-09T01:03:20.447Z,16.97
2024-05-09T01:05:49.510Z,14.75
2024-05-09T01:08:17.313Z,13.80
2024-05-09T01:10:47.125Z,18.43
2024-05-09T01:13:16.176Z,14.10
2024-05-09T01:15:43.928Z,15.52
2024-05-09T01:18:12.939Z,11.93
2024-05-09T01:20:44.054Z,11.15
2024-05-09T01:23:15.056Z,10.77
2024-05-09T01:25:47.278Z,11.80
2024-05-09T01:28:16.302Z,12.80
2024-05-09T01:30:44.188Z,12.30
2024-05-09T01:33:12.792Z,11.48
2024-05-09T01:35:42.556Z,15.50
2024-05-09T01:38:17.024Z,13.18
2024-05-09T01:40:45.584Z,12.40
2024-05-09T01:43:13.348Z,13.53
2024-05-09T01:45:41.381Z,13.85
2024-05-09T01:48:10.047Z,11.93
2024-05-09T01:50:41.603Z,14.60
2024-05-09T01:53:12.216Z,16.83
2024-05-09T01:55:40.353Z,13.75
2024-05-09T01:58:08.853Z,14.52
2024-05-09T02:00:40.916Z,16.00
2024-05-09T02:03:13.531Z,14.82
2024-05-09T02:05:44.480Z,15.75
2024-05-09T02:08:15.131Z,16.57
2024-05-09T02:10:46.741Z,13.75
2024-05-09T02:13:14.950Z,13.98
2024-05-09T02:15:59.046Z,14.93
2024-05-09T02:18:26.914Z,14.40
2024-05-09T02:20:54.726Z,18.45
2024-05-09T02:23:22.551Z,14.88
2024-05-09T02:25:50.265Z,22.03
2024-05-09T02:28:18.223Z,16.92
2024-05-09T02:30:48.697Z,14.73
2024-05-09T02:33:16.476Z,10.63
2024-05-09T02:35:44.551Z,13.48
2024-05-09T02:38:12.829Z,14.15
2024-05-09T02:40:41.087Z,17.65
2024-05-09T02:43:10.427Z,17.63
2024-05-09T02:45:39.679Z,16.35
2024-05-09T02:48:08.253Z,15.77
2024-05-09T02:50:39.176Z,17.07
2024-05-09T02:53:09.105Z,16.73
2024-05-09T02:55:38.846Z,18.75
2024-05-09T02:58:09.668Z,16.50
2024-05-09T03:00:40.819Z,15.30
2024-05-09T03:03:12.967Z,17.92
2024-05-09T03:06:02.787Z,16.25
2024-05-09T03:08:30.532Z,16.87
2024-05-09T03:10:58.282Z,17.40
2024-05-09T03:13:26.078Z,17.80
2024-05-09T03:15:53.747Z,15.20
2024-05-09T03:18:21.724Z,17.85
2024-05-09T03:20:49.741Z,18.40
2024-05-09T03:23:17.783Z,14.50
2024-05-09T03:25:45.619Z,14.98
2024-05-09T03:28:13.340Z,14.75
2024-05-09T03:30:43.330Z,14.75
2024-05-09T03:33:13.200Z,16.53
2024-05-09T03:35:42.554Z,17.65
2024-05-09T03:38:10.541Z,18.00
2024-05-09T03:40:44.436Z,19.47
2024-05-09T03:43:13.677Z,15.93
2024-05-09T03:45:41.570Z,21.50
2024-05-09T03:48:09.653Z,25.83
2024-05-09T03:50:38.280Z,17.95
2024-05-09T03:53:06.624Z,20.75
2024-05-09T03:55:34.438Z,20.00
2024-05-09T03:58:04.810Z,20.67
2024-05-09T04:00:38.054Z,21.45
2024-05-09T04:03:11.928Z,16.42
2024-05-09T04:05:42.484Z,20.63
2024-05-09T04:08:13.638Z,16.48
2024-05-09T04:10:41.679Z,19.20
2024-05-09T04:13:10.274Z,19.83
2024-05-09T04:15:38.084Z,19.20
2024-05-09T04:18:06.056Z,18.75
2024-05-09T04:20:38.859Z,19.27
2024-05-09T04:23:09.558Z,19.83
2024-05-09T04:25:38.115Z,16.45
2024-05-09T04:28:06.018Z,15.13
2024-05-09T04:30:38.618Z,14.20
2024-05-09T04:33:11.171Z,11.13
2024-05-09T04:35:42.519Z,12.07
2024-05-09T04:38:10.796Z,15.67
2024-05-09T04:40:38.714Z,15.27
2024-05-09T04:43:07.078Z,13.23
2024-05-09T04:45:35.841Z,14.20
2024-05-09T04:48:04.167Z,14.90
2024-05-09T04:50:37.138Z,15.45
2024-05-09T04:53:07.879Z,19.08
2024-05-09T04:55:37.633Z,19.17
2024-05-09T04:58:08.773Z,16.40
2024-05-09T05:00:38.858Z,19.63
2024-05-09T05:03:13.968Z,19.13
2024-05-09T05:05:44.865Z,17.33
2024-05-09T05:08:14.334Z,17.27
2024-05-09T05:10:42.831Z,16.98
2024-05-09T05:13:24.988Z,15.73
2024-05-09T05:15:55.935Z,17.60
2024-05-09T05:18:24.647Z,15.23
2024-05-09T05:20:52.805Z,16.53
2024-05-09T05:23:21.647Z,17.23
2024-05-09T05:25:51.146Z,19.23
2024-05-09T05:28:19.090Z,17.57
2024-05-09T05:30:46.957Z,18.75
2024-05-09T05:33:15.881Z,17.27
2024-05-09T05:35:43.925Z,16.77
2024-05-09T05:38:11.872Z,19.80
2024-05-09T05:40:40.747Z,19.88
2024-05-09T05:43:09.872Z,17.67
2024-05-09T05:45:38.620Z,19.20
2024-05-09T05:48:07.572Z,16.40
2024-05-09T05:50:37.755Z,16.23
2024-05-09T05:53:07.900Z,14.38
2024-05-09T05:55:39.961Z,16.38
2024-05-09T05:58:11.867Z,17.65
2024-05-09T06:00:40.878Z,16.95
2024-05-09T06:03:10.430Z,14.30
2024-05-09T06:05:40.450Z,16.50
2024-05-09T06:08:09.329Z,14.55
2024-05-09T06:10:39.924Z,13.63
2024-05-09T06:13:12.554Z,13.48
2024-05-09T06:15:42.337Z,12.98
2024-05-09T06:18:13.021Z,11.75
2024-05-09T06:20:42.626Z,11.43
2024-05-09T06:23:11.814Z,13.48
2024-05-09T06:25:39.884Z,12.52
2024-05-09T06:28:07.666Z,10.93
2024-05-09T06:30:42.129Z,12.35
2024-05-09T06:33:13.321Z,13.95
2024-05-09T06:35:43.327Z,11.93
2024-05-09T06:38:11.817Z,12.30
2024-05-09T06:40:42.379Z,11.35
2024-05-09T06:43:12.233Z,11.15
2024-05-09T06:45:40.253Z,9.93
2024-05-09T06:48:09.279Z,12.00
2024-05-09T06:50:39.087Z,12.48
2024-05-09T06:53:08.324Z,12.83
2024-05-09T06:55:36.663Z,12.07
2024-05-09T06:58:05.887Z,12.75
2024-05-09T07:00:39.191Z,13.13
2024-05-09T07:03:14.005Z,11.48
2024-05-09T07:05:44.626Z,18.60
2024-05-09T07:08:14.362Z,13.60
2024-05-09T07:10:42.335Z,15.20
2024-05-09T07:13:10.498Z,13.52
2024-05-09T07:15:38.448Z,14.60
2024-05-09T07:18:14.066Z,13.87
2024-05-09T07:20:42.380Z,12.77
2024-05-09T07:23:10.872Z,14.65
2024-05-09T07:25:39.005Z,12.70
2024-05-09T07:28:06.780Z,13.43
2024-05-09T07:30:35.206Z,13.98
2024-05-09T07:33:04.219Z,13.73
2024-05-09T07:35:32.374Z,15.75
2024-05-09T07:38:00.379Z,11.02
2024-05-09T07:40:34.890Z,14.82
2024-05-09T07:43:04.995Z,15.00
2024-05-09T07:52:23.786Z,16.07
2024-05-09T07:53:39.547Z,12.77
2024-05-09T07:56:11.984Z,13.07
2024-05-09T07:58:40.192Z,12.95
2024-05-09T08:01:08.968Z,15.77
2024-05-09T08:03:36.879Z,14.73
2024-05-09T08:06:04.794Z,16.17
2024-05-09T08:08:32.639Z,16.03
2024-05-09T08:11:00.456Z,14.05
2024-05-09T08:13:28.296Z,15.35
2024-05-09T08:15:56.167Z,14.70
2024-05-09T08:18:24.168Z,12.18
2024-05-09T08:20:52.866Z,13.18
2024-05-09T08:23:20.600Z,13.93
2024-05-09T08:25:48.340Z,12.07
2024-05-09T08:28:16.390Z,13.38
2024-05-09T08:30:44.505Z,12.00
2024-05-09T08:33:12.652Z,13.23
2024-05-09T08:35:40.506Z,13.70
2024-05-09T08:38:08.443Z,11.70
2024-05-09T08:40:37.924Z,15.80
2024-05-09T08:43:09.348Z,11.90
2024-05-09T08:45:39.542Z,12.52
2024-05-09T08:48:09.225Z,12.30
2024-05-09T08:50:39.473Z,15.75
2024-05-09T08:53:08.639Z,11.30
2024-05-09T08:55:40.462Z,10.43
2024-05-09T08:58:14.680Z,10.83
2024-05-09T09:00:42.792Z,10.68
2024-05-09T09:07:38.219Z,11.70
2024-05-09T09:10:24.884Z,12.15
2024-05-09T09:12:58.101Z,11.10
2024-05-09T09:15:25.978Z,14.25
2024-05-09T09:18:00.224Z,11.30
2024-05-09T09:20:35.659Z,13.88
2024-05-09T09:23:04.995Z,12.65
2024-05-09T09:25:33.224Z,9.93
2024-05-09T09:28:01.038Z,9.27
2024-05-09T09:30:36.290Z,10.80
2024-05-09T09:33:06.661Z,11.00
2024-05-09T09:35:35.871Z,12.35
2024-05-09T09:38:05.775Z,11.55
2024-05-09T09:40:40.872Z,11.90
2024-05-09T09:43:23.819Z,12.40
2024-05-09T09:45:53.035Z,10.13
2024-05-09T09:48:22.868Z,13.63
2024-05-09T09:50:53.808Z,9.80
2024-05-09T09:53:22.674Z,11.00
2024-05-09T09:55:50.554Z,12.73
2024-05-09T09:58:18.470Z,12.20
2024-05-09T10:00:46.459Z,10.40
2024-05-09T10:03:15.163Z,11.25
2024-05-09T10:05:45.404Z,11.30
2024-05-09T10:08:14.997Z,9.13
2024-05-09T10:10:46.341Z,10.95
2024-05-09T10:13:14.646Z,13.30
2024-05-09T10:15:48.957Z,10.43
2024-05-09T10:18:16.942Z,12.95
2024-05-09T10:20:49.391Z,11.20
2024-05-09T10:23:26.538Z,10.60
2024-05-09T10:25:57.080Z,10.60
2024-05-09T10:28:28.387Z,13.63
2024-05-09T10:31:02.191Z,12.02
2024-05-09T10:33:39.697Z,10.93
2024-05-09T10:36:33.896Z,11.30
2024-05-09T10:39:01.657Z,10.65
2024-05-09T10:41:29.395Z,10.70
2024-05-09T10:43:57.230Z,9.70
2024-05-09T10:46:25.042Z,10.45
2024-05-09T10:48:53.497Z,11.47
2024-05-09T10:51:21.586Z,7.53
2024-05-09T10:53:49.345Z,8.95
2024-05-09T10:56:17.469Z,12.07
2024-05-09T10:58:45.337Z,9.70
2024-05-09T11:01:14.082Z,9.82
2024-05-09T11:03:43.171Z,9.70
2024-05-09T11:06:11.778Z,9.07
2024-05-09T11:08:39.629Z,9.43
2024-05-09T11:11:08.513Z,9.85
2024-05-09T11:13:37.644Z,9.40
2024-05-09T11:16:07.065Z,12.38
2024-05-09T11:18:38.269Z,9.70
2024-05-09T11:21:14.077Z,15.32
2024-05-09T11:23:43.277Z,9.82
2024-05-09T11:26:12.454Z,10.30
2024-05-09T11:28:40.692Z,9.68
2024-05-09T11:31:10.434Z,10.83
2024-05-09T11:33:45.732Z,12.65
2024-05-09T11:36:13.631Z,10.15
2024-05-09T11:38:41.544Z,11.70
2024-05-09T11:41:09.339Z,8.98
2024-05-09T11:43:37.205Z,9.25
2024-05-09T11:46:05.260Z,8.23
2024-05-09T11:48:34.697Z,7.55
2024-05-09T11:51:02.738Z,7.25
2024-05-09T11:53:30.428Z,7.03
2024-05-09T11:55:58.161Z,8.40
2024-05-09T11:58:25.905Z,7.85
2024-05-09T12:00:53.742Z,6.97
2024-05-09T12:03:21.581Z,11.63
2024-05-09T12:05:50.211Z,6.30
2024-05-09T12:08:17.978Z,8.68
2024-05-09T12:10:46.122Z,7.05
2024-05-09T12:13:14.184Z,6.85
2024-05-09T12:15:42.618Z,6.85
2024-05-09T12:18:10.599Z,6.82
2024-05-09T12:20:39.996Z,8.73
2024-05-09T12:23:09.868Z,7.30
2024-05-09T12:25:39.071Z,7.57
2024-05-09T12:28:07.825Z,7.70
2024-05-09T12:30:40.040Z,7.38
2024-05-09T12:33:10.309Z,11.48
2024-05-09T12:35:38.643Z,5.95
2024-05-09T12:38:06.793Z,8.63
2024-05-09T12:40:37.619Z,8.85
2024-05-09T12:43:08.622Z,5.63
2024-05-09T12:45:38.129Z,6.90
2024-05-09T12:48:08.433Z,5.90
2024-05-09T12:50:37.120Z,4.55
2024-05-09T12:53:05.525Z,4.80
2024-05-09T12:55:41.429Z,6.40
2024-05-09T12:58:19.148Z,5.72
2024-05-09T13:00:47.580Z,5.90
2024-05-09T13:03:15.571Z,6.00
2024-05-09T13:05:46.559Z,10.07
2024-05-09T13:08:15.193Z,6.20
2024-05-09T13:10:43.144Z,5.87
2024-05-09T13:13:11.284Z,7.47
2024-05-09T13:15:39.299Z,7.90
2024-05-09T13:18:07.343Z,7.27
2024-05-09T13:20:36.407Z,7.53
2024-05-09T13:23:05.513Z,6.00
2024-05-09T13:25:37.581Z,5.82
2024-05-09T13:28:06.345Z,5.43
2024-05-09T13:30:39.558Z,5.90
2024-05-09T13:33:11.280Z,8.48
2024-05-09T13:35:41.973Z,6.07
2024-05-09T13:38:13.898Z,5.82
2024-05-09T13:40:41.886Z,6.47
2024-05-09T13:43:09.716Z,5.80
2024-05-09T13:45:37.556Z,5.68
2024-05-09T13:48:07.228Z,6.93
2024-05-09T13:50:36.702Z,6.10
2024-05-09T13:53:06.488Z,6.80
2024-05-09T13:55:35.644Z,6.70
2024-05-09T13:58:03.568Z,5.15
2024-05-09T14:00:42.328Z,4.77
2024-05-09T14:03:15.916Z,7.50
2024-05-09T14:05:44.362Z,5.97
2024-05-09T14:08:13.649Z,5.10
2024-05-09T14:10:45.096Z,5.90
2024-05-09T14:13:13.644Z,6.53
2024-05-09T14:15:41.667Z,7.20
2024-05-09T14:18:12.723Z,6.88
2024-05-09T14:20:42.347Z,6.20
2024-05-09T14:23:10.362Z,5.82
2024-05-09T14:25:42.312Z,4.43
2024-05-09T14:28:12.951Z,4.78
2024-05-09T14:30:41.618Z,4.55
2024-05-09T14:33:09.846Z,5.07
2024-05-09T14:35:38.776Z,5.25
2024-05-09T14:38:07.337Z,6.22
2024-05-09T14:40:41.676Z,10.38
2024-05-09T14:43:12.737Z,4.10
2024-05-09T14:45:41.537Z,6.90
2024-05-09T14:48:09.993Z,4.70
2024-05-09T14:50:40.084Z,8.07
2024-05-09T14:53:09.064Z,4.93
2024-05-09T14:55:40.730Z,5.38
2024-05-09T14:58:10.206Z,7.50
2024-05-09T15:00:41.504Z,5.68
2024-05-09T15:03:12.510Z,7.13
2024-05-09T15:05:40.788Z,6.10
2024-05-09T15:08:08.896Z,5.55
2024-05-09T15:10:37.788Z,7.55
2024-05-09T15:13:09.800Z,5.55
2024-05-09T15:15:39.336Z,5.43
2024-05-09T15:18:07.304Z,4.88
2024-05-09T15:20:37.159Z,4.22
2024-05-09T15:23:07.039Z,4.83
2024-05-09T15:25:36.299Z,4.72
2024-05-09T15:28:05.014Z,3.85
2024-05-09T15:30:34.467Z,5.05
2024-05-09T15:33:07.316Z,4.57
2024-05-09T15:35:36.134Z,5.60
2024-05-09T15:38:04.576Z,5.40
2024-05-09T15:40:39.256Z,4.53
2024-05-09T15:43:10.036Z,7.53
2024-05-09T15:45:39.819Z,6.88
2024-05-09T15:48:09.130Z,5.07
2024-05-09T15:50:40.844Z,6.07
2024-05-09T15:53:11.569Z,7.97
2024-05-09T15:55:40.124Z,6.30
2024-05-09T15:58:08.050Z,6.32
2024-05-09T16:00:39.867Z,5.32
2024-05-09T16:03:12.870Z,7.20
2024-05-09T16:05:42.208Z,5.60
2024-05-09T16:08:10.175Z,6.28
2024-05-09T16:10:44.552Z,5.95
2024-05-09T16:13:14.381Z,5.93
2024-05-09T16:15:43.488Z,7.30
2024-05-09T16:18:11.481Z,7.93
2024-05-09T16:20:41.693Z,7.07
2024-05-09T16:23:11.217Z,7.68
2024-05-09T16:25:39.837Z,4.75
2024-05-09T16:28:10.447Z,7.47
2024-05-09T16:30:39.729Z,6.93
2024-05-09T16:33:08.579Z,6.53
2024-05-09T16:35:37.488Z,5.07
2024-05-09T16:38:05.974Z,6.07
2024-05-09T16:40:38.557Z,5.68
2024-05-09T16:43:12.627Z,5.53
2024-05-09T16:45:41.229Z,4.80
2024-05-09T16:48:09.448Z,4.93
2024-05-09T16:50:37.438Z,7.45
2024-05-09T16:53:06.362Z,6.03
2024-05-09T16:55:35.223Z,8.70
2024-05-09T16:58:03.438Z,6.03
2024-05-09T17:00:39.576Z,6.07
2024-05-09T17:03:11.707Z,5.57
2024-05-09T17:05:40.745Z,6.15
2024-05-09T17:08:08.956Z,6.60
2024-05-09T17:10:37.115Z,5.82
2024-05-09T17:13:06.859Z,6.55
2024-05-09T17:15:37.541Z,7.75
2024-05-09T17:18:06.556Z,5.82
2024-05-09T17:20:36.895Z,9.93
2024-05-09T17:23:12.860Z,6.25
2024-05-09T17:25:41.293Z,6.95
2024-05-09T17:28:09.522Z,6.77
2024-05-09T17:30:39.731Z,6.82
2024-05-09T17:33:10.121Z,9.65
2024-05-09T17:35:38.994Z,7.55
2024-05-09T17:38:06.976Z,6.85
2024-05-09T17:40:44.640Z,7.05
2024-05-09T17:43:13.661Z,8.02
2024-05-09T17:45:42.252Z,5.87
2024-05-09T17:48:11.257Z,5.63
2024-05-09T17:50:40.474Z,8.27
2024-05-09T17:53:08.990Z,11.20
2024-05-09T17:55:36.955Z,4.07
2024-05-09T17:58:05.711Z,5.10
2024-05-09T18:00:39.273Z,5.80
2024-05-09T18:03:13.909Z,6.72
2024-05-09T18:05:43.947Z,4.90
2024-05-09T18:08:12.826Z,4.53
2024-05-09T18:10:41.478Z,5.53
2024-05-09T18:13:10.033Z,4.05
2024-05-09T18:15:39.410Z,3.83
2024-05-09T18:18:08.015Z,4.03
2024-05-09T18:20:42.384Z,3.67
2024-05-09T18:23:16.160Z,8.18
2024-05-09T18:25:46.283Z,3.95
2024-05-09T18:28:14.715Z,3.85
2024-05-09T18:30:43.192Z,4.78
2024-05-09T18:33:12.064Z,3.47
2024-05-09T18:35:41.583Z,4.50
2024-05-09T18:38:13.010Z,4.32
2024-05-09T18:40:49.641Z,4.75
2024-05-09T18:43:28.407Z,3.80
2024-05-09T18:45:59.225Z,3.88
2024-05-09T18:48:27.349Z,3.40
2024-05-09T18:50:55.204Z,4.63
2024-05-09T18:53:23.071Z,5.15
2024-05-09T18:55:50.964Z,4.75
2024-05-09T18:58:18.778Z,3.75
2024-05-09T19:00:49.294Z,4.13
2024-05-09T19:03:19.142Z,7.20
2024-05-09T19:05:48.392Z,3.60
2024-05-09T19:08:16.284Z,6.07
2024-05-09T19:10:46.001Z,6.43
2024-05-09T19:13:15.657Z,3.15
2024-05-09T19:15:47.397Z,2.95
2024-05-09T19:18:15.813Z,4.05
2024-05-09T19:20:45.414Z,5.03
2024-05-09T19:23:13.328Z,3.63
2024-05-09T19:25:41.283Z,5.10
2024-05-09T19:28:09.327Z,4.10
2024-05-09T19:30:41.109Z,4.22
2024-05-09T19:33:13.564Z,2.70
2024-05-09T19:35:42.538Z,4.18
2024-05-09T19:38:10.757Z,3.42
2024-05-09T19:40:40.454Z,4.10
2024-05-09T19:43:09.126Z,4.68
2024-05-09T19:45:37.351Z,3.45
2024-05-09T19:48:06.335Z,3.67
2024-05-09T19:50:41.584Z,3.47
2024-05-09T19:53:12.569Z,3.10
2024-05-09T19:55:40.858Z,3.72
2024-05-09T19:58:09.309Z,3.57
2024-05-09T20:00:39.678Z,5.68
2024-05-09T20:03:10.389Z,5.35
2024-05-09T20:05:39.126Z,4.00
2024-05-09T20:08:09.958Z,5.85
2024-05-09T20:10:38.077Z,5.60
2024-05-09T20:13:07.154Z,6.22
2024-05-09T20:15:36.745Z,5.63
2024-05-09T20:18:06.299Z,6.45
2024-05-09T20:20:39.387Z,6.35
2024-05-09T20:23:13.040Z,5.97
2024-05-09T20:25:40.980Z,5.68
2024-05-09T20:28:08.991Z,6.55
2024-05-09T20:30:37.084Z,7.33
2024-05-09T20:33:07.352Z,5.40
2024-05-09T20:35:36.626Z,5.97
2024-05-09T20:38:04.849Z,7.85
2024-05-09T20:40:37.706Z,7.37
2024-05-09T20:43:07.666Z,6.15
2024-05-09T20:45:36.047Z,6.07
2024-05-09T20:48:04.095Z,7.03
2024-05-09T20:50:37.869Z,7.10
2024-05-09T20:53:15.381Z,7.07
2024-05-09T20:55:44.269Z,7.43
2024-05-09T20:58:12.999Z,8.73
2024-05-09T21:00:44.200Z,8.68
2024-05-09T21:03:14.983Z,9.63
2024-05-09T21:05:44.188Z,9.77
2024-05-09T21:08:12.077Z,8.70
2024-05-09T21:10:39.873Z,12.13
2024-05-09T21:13:07.757Z,10.87
2024-05-09T21:15:36.281Z,10.48
2024-05-09T21:18:05.128Z,9.93
2024-05-09T21:20:34.958Z,7.23
2024-05-09T21:23:03.551Z,10.45
2024-05-09T21:25:31.875Z,10.05
2024-05-09T21:27:59.837Z,9.68
2024-05-09T21:30:37.382Z,10.23
2024-05-09T21:33:11.082Z,9.90
2024-05-09T21:35:40.624Z,9.80
2024-05-09T21:38:08.440Z,10.60
2024-05-09T21:40:37.346Z,10.23
2024-05-09T21:43:06.042Z,9.43
2024-05-09T21:45:34.257Z,11.73
2024-05-09T21:48:07.522Z,11.25
2024-05-09T21:50:40.447Z,10.85
2024-05-09T21:53:13.425Z,10.50
2024-05-09T21:55:42.164Z,10.60
2024-05-09T21:58:10.550Z,10.10
2024-05-09T22:00:40.261Z,10.55
2024-05-09T22:03:09.024Z,10.30
2024-05-09T22:05:38.256Z,9.60
2024-05-09T22:08:06.321Z,9.05
2024-05-09T22:10:36.201Z,10.07
2024-05-09T22:13:08.548Z,10.90
2024-05-09T22:15:37.798Z,9.70
2024-05-09T22:18:08.312Z,10.50
2024-05-09T22:20:44.484Z,10.60
2024-05-09T22:23:13.608Z,10.52
2024-05-09T22:25:41.371Z,11.05
2024-05-09T22:28:09.168Z,11.27
2024-05-09T22:30:39.587Z,8.88
2024-05-09T22:33:09.747Z,11.15
2024-05-09T22:35:38.920Z,10.67
2024-05-09T22:38:06.820Z,10.93
2024-05-09T22:40:45.905Z,12.95
2024-05-09T22:43:21.061Z,12.13
2024-05-09T22:45:50.762Z,11.83
2024-05-09T22:48:19.068Z,13.48
2024-05-09T22:50:46.914Z,15.52
2024-05-09T22:53:14.648Z,13.47
2024-05-09T22:55:42.685Z,11.88
2024-05-09T22:58:10.522Z,14.52
2024-05-09T23:00:38.567Z,12.83
2024-05-09T23:03:07.474Z,15.23
2024-05-09T23:05:35.237Z,15.50
2024-05-09T23:08:03.054Z,15.35
2024-05-09T23:10:36.222Z,14.37
2024-05-09T23:13:07.405Z,15.35
2024-05-09T23:15:36.443Z,15.63
2024-05-09T23:18:04.506Z,15.03
2024-05-09T23:20:37.510Z,18.70
2024-05-09T23:23:08.759Z,16.05
2024-05-09T23:25:37.348Z,16.13
2024-05-09T23:28:06.816Z,18.00
2024-05-09T23:30:38.815Z,19.08
2024-05-09T23:33:08.937Z,19.35
2024-05-09T23:35:36.828Z,14.80
2024-05-09T23:38:04.689Z,15.02
2024-05-09T23:40:39.529Z,15.50
2024-05-09T23:43:09.727Z,16.27
2024-05-09T23:45:38.058Z,17.55
2024-05-09T23:48:06.309Z,15.50
2024-05-09T23:50:37.420Z,17.90
2024-05-09T23:53:08.540Z,13.82
2024-05-09T23:55:37.662Z,17.58
2024-05-09T23:58:05.824Z,12.65
